createdAt,value
2018-12-04T07:22:18.283Z,41.518
2018-12-04T07:22:34.310Z,40.326
2018-12-04T07:22:50.164Z,38.148
2018-12-04T07:23:06.231Z,37.686
2018-12-04T07:23:22.136Z,39.215
2018-12-04T07:23:37.986Z,38.641
2018-12-04T07:23:53.833Z,38.312
2018-12-04T07:24:09.762Z,38.382
2018-12-04T07:24:25.635Z,38.184
2018-12-04T07:24:41.511Z,38.554
2018-12-04T07:24:57.418Z,38.524
2018-12-04T07:25:13.308Z,38.417
2018-12-04T07:25:29.270Z,38.353
2018-12-04T07:25:45.185Z,38.148
2018-12-04T07:26:01.082Z,38.254
2018-12-04T07:26:16.945Z,38.152
2018-12-04T07:26:32.807Z,38.097
2018-12-04T07:26:48.663Z,38.06
2018-12-04T07:27:04.510Z,38.048
2018-12-04T07:27:20.390Z,38.016
2018-12-04T07:27:36.437Z,38.014
2018-12-04T07:27:52.283Z,38.043
2018-12-04T07:28:08.155Z,38.057
2018-12-04T07:28:24.122Z,37.936
2018-12-04T07:28:40.070Z,37.914
2018-12-04T07:28:55.971Z,37.814
2018-12-04T07:29:11.857Z,37.856
2018-12-04T07:29:27.719Z,37.776
2018-12-04T07:29:43.582Z,37.805
2018-12-04T07:29:59.431Z,37.854
2018-12-04T07:30:15.318Z,37.781
2018-12-04T07:30:31.181Z,37.794
2018-12-04T07:30:47.015Z,37.616
2018-12-04T07:31:02.862Z,37.74
2018-12-04T07:31:18.708Z,37.727
2018-12-04T07:31:34.619Z,37.695
2018-12-04T07:31:50.541Z,37.709
2018-12-04T07:32:06.760Z,37.608
2018-12-04T07:32:22.658Z,37.621
2018-12-04T07:32:38.856Z,37.556
2018-12-04T07:32:54.914Z,37.535
2018-12-04T07:33:10.742Z,37.607
2018-12-04T07:33:26.626Z,37.524
2018-12-04T07:33:42.490Z,37.561
2018-12-04T07:33:58.378Z,37.59
2018-12-04T07:34:14.223Z,37.593
2018-12-04T07:34:30.289Z,37.5
2018-12-04T07:34:46.310Z,37.579
2018-12-04T07:35:02.265Z,37.576
2018-12-04T07:35:18.131Z,37.552
2018-12-04T07:35:34.007Z,37.579
2018-12-04T07:35:49.864Z,37.5
2018-12-04T07:36:05.747Z,37.436
2018-12-04T07:36:21.657Z,37.459
2018-12-04T07:36:37.536Z,37.486
2018-12-04T07:36:53.392Z,37.418
2018-12-04T07:37:09.261Z,37.436
